createdAt,value
2018-08-16T00:00:44.024Z,8.07
2018-08-16T00:03:14.704Z,7.43
2018-08-16T00:05:45.388Z,7.67
2018-08-16T00:08:16.513Z,7.80
2018-08-16T00:10:47.307Z,7.20
2018-08-16T00:13:17.926Z,7.43
2018-08-16T00:15:48.757Z,7.93
2018-08-16T00:18:18.678Z,7.67
2018-08-16T00:20:49.461Z,7.53
2018-08-16T00:23:20.216Z,7.53
2018-08-16T00:25:50.453Z,7.90
2018-08-16T00:28:21.600Z,7.00
2018-08-16T00:30:52.415Z,7.83
2018-08-16T00:33:22.959Z,7.10
2018-08-16T00:35:54.244Z,7.37
2018-08-16T00:38:24.999Z,7.20
2018-08-16T00:40:55.846Z,7.30
2018-08-16T00:43:26.600Z,7.90
2018-08-16T00:45:57.311Z,8.10
2018-08-16T00:48:28.059Z,8.87
2018-08-16T00:50:58.761Z,9.27
2018-08-16T00:53:29.675Z,9.60
2018-08-16T00:56:00.458Z,9.60
2018-08-16T00:58:30.780Z,9.20
2018-08-16T01:01:02.264Z,8.73
2018-08-16T01:03:32.119Z,9.60
2018-08-16T01:06:02.765Z,10.00
2018-08-16T01:08:33.720Z,10.40
2018-08-16T01:11:04.008Z,10.07
2018-08-16T01:13:34.847Z,10.63
2018-08-16T01:16:05.748Z,9.80
2018-08-16T01:18:37.266Z,10.63
2018-08-16T01:21:08.191Z,9.57
2018-08-16T01:23:39.277Z,9.13
2018-08-16T01:26:10.458Z,9.50
2018-08-16T01:28:41.205Z,9.30
2018-08-16T01:31:12.586Z,9.10
2018-08-16T01:33:43.491Z,9.17
2018-08-16T01:36:14.023Z,9.13
2018-08-16T01:38:44.827Z,9.03
2018-08-16T01:41:15.627Z,9.60
2018-08-16T01:43:46.379Z,9.47
2018-08-16T01:46:17.053Z,8.77
2018-08-16T01:48:46.990Z,9.00
2018-08-16T01:51:17.810Z,9.23
2018-08-16T01:53:48.900Z,9.30
2018-08-16T01:56:19.485Z,9.60
2018-08-16T01:58:50.449Z,8.97
2018-08-16T02:01:20.502Z,9.67
2018-08-16T02:03:51.370Z,9.40
2018-08-16T02:06:21.981Z,9.27
2018-08-16T02:08:52.893Z,9.57
2018-08-16T02:11:23.614Z,9.37
2018-08-16T02:13:54.306Z,9.57
2018-08-16T02:16:25.014Z,9.63
2018-08-16T02:18:55.954Z,9.60
2018-08-16T02:21:26.521Z,9.90
2018-08-16T02:23:56.756Z,10.03
2018-08-16T02:26:27.486Z,9.43
2018-08-16T02:28:58.382Z,9.13
2018-08-16T02:31:29.244Z,9.53
2018-08-16T02:34:00.205Z,9.60
2018-08-16T02:36:30.926Z,8.40
2018-08-16T02:39:01.846Z,9.07
2018-08-16T02:41:32.636Z,9.77
2018-08-16T02:44:03.325Z,9.83
2018-08-16T02:46:33.950Z,9.10
2018-08-16T02:49:04.827Z,9.37
2018-08-16T02:51:35.044Z,9.43
2018-08-16T02:54:06.017Z,9.30
2018-08-16T02:56:36.820Z,11.67
2018-08-16T02:59:07.810Z,10.30
2018-08-16T03:01:38.596Z,12.80
2018-08-16T03:04:09.293Z,10.27
2018-08-16T03:06:39.149Z,11.10
2018-08-16T03:09:11.035Z,11.40
2018-08-16T03:11:41.569Z,10.47
2018-08-16T03:14:12.475Z,10.03
2018-08-16T03:16:43.271Z,10.10
2018-08-16T03:19:13.951Z,9.53
2018-08-16T03:21:44.084Z,9.50
2018-08-16T03:24:14.228Z,9.20
2018-08-16T03:26:45.265Z,9.73
2018-08-16T03:29:16.546Z,9.43
2018-08-16T03:31:46.883Z,10.27
2018-08-16T03:34:17.440Z,10.30
2018-08-16T03:36:48.001Z,9.83
2018-08-16T03:39:18.894Z,9.27
2018-08-16T03:41:49.496Z,9.40
2018-08-16T03:44:20.097Z,9.77
2018-08-16T03:46:51.189Z,10.33
2018-08-16T03:49:21.396Z,9.80
2018-08-16T03:51:52.241Z,10.50
2018-08-16T03:54:22.814Z,9.50
2018-08-16T03:56:53.447Z,9.57
2018-08-16T03:59:24.203Z,10.17
2018-08-16T04:01:54.914Z,9.37
2018-08-16T04:04:26.384Z,10.00
2018-08-16T04:06:57.154Z,9.97
2018-08-16T04:09:27.689Z,11.33
2018-08-16T04:11:58.568Z,10.70
2018-08-16T04:14:29.483Z,11.00
2018-08-16T04:17:00.393Z,11.03
2018-08-16T04:19:31.102Z,10.17
2018-08-16T04:22:01.808Z,11.00
2018-08-16T04:24:32.505Z,11.43
2018-08-16T04:27:03.441Z,11.10
2018-08-16T04:29:33.986Z,11.43
2018-08-16T04:32:04.994Z,10.60
2018-08-16T04:34:35.799Z,10.80
2018-08-16T04:37:06.477Z,10.67
2018-08-16T04:39:37.189Z,11.00
2018-08-16T04:42:08.112Z,10.60
2018-08-16T04:44:38.352Z,10.53
2018-08-16T04:47:09.589Z,10.27
2018-08-16T04:49:40.299Z,9.53
2018-08-16T04:52:10.946Z,10.20
2018-08-16T04:54:41.810Z,9.83
2018-08-16T04:57:12.558Z,9.20
2018-08-16T04:59:43.578Z,9.63
2018-08-16T05:02:14.407Z,10.13
2018-08-16T05:04:45.146Z,8.90
2018-08-16T05:07:15.795Z,8.93
2018-08-16T05:09:46.700Z,8.67
2018-08-16T05:12:17.251Z,10.37
2018-08-16T05:14:47.853Z,8.90
2018-08-16T05:17:17.810Z,10.23
2018-08-16T05:19:48.698Z,7.93
2018-08-16T05:22:18.939Z,7.73
2018-08-16T05:24:49.539Z,7.77
2018-08-16T05:27:19.968Z,7.70
2018-08-16T05:29:50.894Z,7.87
2018-08-16T05:32:21.283Z,9.40
2018-08-16T05:34:52.456Z,7.90
2018-08-16T05:37:22.675Z,7.33
2018-08-16T05:39:53.424Z,7.60
2018-08-16T05:42:24.122Z,7.93
2018-08-16T05:44:54.682Z,7.50
2018-08-16T05:47:25.675Z,10.20
2018-08-16T05:49:57.368Z,7.50
2018-08-16T05:52:28.818Z,7.60
2018-08-16T05:54:59.719Z,7.97
2018-08-16T05:57:30.271Z,7.30
2018-08-16T06:00:01.087Z,6.53
2018-08-16T06:02:32.492Z,7.37
2018-08-16T06:05:03.899Z,7.53
2018-08-16T06:07:34.612Z,8.53
2018-08-16T06:10:06.036Z,12.40
2018-08-16T06:12:36.134Z,7.67
2018-08-16T06:15:08.233Z,7.27
2018-08-16T06:17:39.470Z,7.23
2018-08-16T06:20:12.137Z,6.60
2018-08-16T06:22:43.037Z,7.97
2018-08-16T06:25:14.652Z,6.90
2018-08-16T06:27:45.741Z,7.17
2018-08-16T06:30:17.766Z,7.47
2018-08-16T06:32:48.665Z,6.83
2018-08-16T06:35:20.504Z,7.50
2018-08-16T06:37:51.274Z,9.20
2018-08-16T06:40:22.163Z,7.37
2018-08-16T06:42:53.032Z,6.70
2018-08-16T06:45:24.011Z,6.57
2018-08-16T06:47:54.156Z,7.30
2018-08-16T06:50:25.837Z,8.10
2018-08-16T06:52:56.913Z,7.67
2018-08-16T06:55:27.337Z,7.03
2018-08-16T06:57:58.448Z,7.97
2018-08-16T07:00:29.159Z,9.03
2018-08-16T07:03:00.217Z,7.20
2018-08-16T07:05:31.411Z,7.67
2018-08-16T07:08:02.120Z,7.03
2018-08-16T07:10:32.102Z,6.60
2018-08-16T07:13:02.068Z,7.57
2018-08-16T07:15:32.676Z,7.40
2018-08-16T07:18:03.146Z,6.63
2018-08-16T07:20:34.849Z,7.47
2018-08-16T07:23:05.699Z,7.47
2018-08-16T07:25:37.214Z,5.80
2018-08-16T07:28:07.391Z,6.77
2018-08-16T07:30:38.056Z,6.53
2018-08-16T07:33:09.002Z,6.97
2018-08-16T07:35:39.805Z,10.13
2018-08-16T07:38:11.666Z,7.17
2018-08-16T07:40:43.490Z,6.13
2018-08-16T07:43:14.644Z,5.60
2018-08-16T07:45:46.344Z,6.53
2018-08-16T07:48:17.093Z,6.00
2018-08-16T07:50:47.995Z,5.40
2018-08-16T07:53:18.739Z,6.33
2018-08-16T07:55:49.534Z,8.73
2018-08-16T07:58:19.699Z,5.57
2018-08-16T08:00:50.673Z,6.10
2018-08-16T08:03:21.676Z,5.53
2018-08-16T08:05:52.664Z,6.00
2018-08-16T08:08:23.547Z,5.63
2018-08-16T08:10:54.576Z,5.67
2018-08-16T08:13:24.495Z,5.40
2018-08-16T08:15:55.524Z,5.70
2018-08-16T08:18:25.725Z,5.40
2018-08-16T08:20:55.684Z,5.07
2018-08-16T08:23:26.025Z,5.00
2018-08-16T08:25:55.869Z,5.33
2018-08-16T08:28:26.591Z,5.07
2018-08-16T08:30:57.424Z,5.13
2018-08-16T08:33:27.418Z,5.07
2018-08-16T08:36:08.325Z,5.07
2018-08-16T08:38:39.110Z,4.97
2018-08-16T08:41:09.731Z,4.90
2018-08-16T08:43:51.531Z,5.27
2018-08-16T08:46:22.489Z,4.93
2018-08-16T08:48:53.850Z,4.33
2018-08-16T08:51:25.106Z,4.78
2018-08-16T08:55:03.926Z,4.53
2018-08-16T08:57:45.585Z,4.62
2018-08-16T09:00:16.733Z,4.67
2018-08-16T09:02:47.773Z,5.12
2018-08-16T09:05:18.801Z,13.70
2018-08-16T09:07:49.636Z,7.47
2018-08-16T09:10:57.225Z,4.85
2018-08-16T09:13:38.707Z,4.15
2018-08-16T09:16:11.883Z,3.83
2018-08-16T09:18:42.950Z,3.87
2018-08-16T09:21:14.663Z,3.80
2018-08-16T09:23:45.755Z,4.10
2018-08-16T09:26:22.085Z,3.75
2018-08-16T09:28:52.999Z,4.30
2018-08-16T09:31:34.459Z,3.75
2018-08-16T09:34:20.772Z,3.80
2018-08-16T09:36:51.580Z,3.95
2018-08-16T09:39:22.740Z,4.83
2018-08-16T09:41:53.847Z,4.22
2018-08-16T09:44:24.845Z,3.95
2018-08-16T09:47:10.843Z,3.80
2018-08-16T09:49:50.679Z,3.98
2018-08-16T09:52:22.451Z,3.90
2018-08-16T09:54:53.482Z,4.05
2018-08-16T09:57:24.445Z,4.28
2018-08-16T09:59:55.334Z,3.92
2018-08-16T10:02:26.076Z,3.80
2018-08-16T10:04:57.024Z,4.55
2018-08-16T10:07:27.898Z,3.90
2018-08-16T10:09:58.122Z,4.20
2018-08-16T10:12:28.975Z,4.12
2018-08-16T10:15:00.036Z,4.22
2018-08-16T10:17:31.218Z,3.60
2018-08-16T10:20:01.927Z,3.80
2018-08-16T10:22:32.865Z,3.90
2018-08-16T10:25:03.398Z,4.03
2018-08-16T10:27:34.407Z,4.35
2018-08-16T10:30:06.026Z,3.60
2018-08-16T10:32:36.895Z,3.95
2018-08-16T10:35:08.359Z,3.85
2018-08-16T10:37:39.339Z,3.95
2018-08-16T10:40:10.007Z,3.95
2018-08-16T10:42:40.639Z,3.85
2018-08-16T10:45:11.557Z,3.90
2018-08-16T10:47:42.899Z,4.05
2018-08-16T10:50:13.826Z,3.85
2018-08-16T10:52:44.566Z,3.77
2018-08-16T10:55:15.521Z,4.33
2018-08-16T10:57:46.077Z,3.80
2018-08-16T11:00:17.005Z,3.60
2018-08-16T11:02:47.940Z,4.03
2018-08-16T11:05:18.955Z,4.15
2018-08-16T11:07:50.067Z,3.60
2018-08-16T11:10:21.060Z,3.72
2018-08-16T11:12:51.770Z,4.25
2018-08-16T11:15:23.164Z,3.83
2018-08-16T11:17:54.053Z,3.98
2018-08-16T11:20:24.882Z,3.75
2018-08-16T11:22:55.983Z,3.90
2018-08-16T11:25:27.669Z,4.10
2018-08-16T11:27:58.590Z,3.72
2018-08-16T11:30:29.478Z,3.42
2018-08-16T11:33:00.358Z,4.08
2018-08-16T11:35:31.245Z,3.70
2018-08-16T11:38:02.321Z,3.25
2018-08-16T11:40:32.681Z,4.15
2018-08-16T11:43:03.277Z,3.27
2018-08-16T11:45:34.410Z,3.40
2018-08-16T11:48:05.285Z,3.80
2018-08-16T11:50:36.019Z,3.70
2018-08-16T11:53:06.924Z,3.90
2018-08-16T11:55:37.452Z,3.60
2018-08-16T11:58:07.789Z,4.78
2018-08-16T12:00:38.230Z,5.17
2018-08-16T12:03:08.366Z,3.77
2018-08-16T12:05:38.311Z,4.00
2018-08-16T12:08:08.733Z,3.47
2018-08-16T12:10:38.928Z,3.90
2018-08-16T12:13:09.332Z,3.70
2018-08-16T12:15:39.354Z,3.90
2018-08-16T12:18:09.268Z,3.75
2018-08-16T12:20:39.253Z,4.03
2018-08-16T12:23:09.787Z,3.83
2018-08-16T12:25:39.829Z,4.35
2018-08-16T12:28:09.829Z,3.80
2018-08-16T12:30:39.918Z,4.12
2018-08-16T12:33:09.781Z,3.90
2018-08-16T12:35:39.866Z,4.50
2018-08-16T12:38:10.023Z,4.00
2018-08-16T12:40:40.084Z,3.90
2018-08-16T12:43:10.182Z,5.25
2018-08-16T12:45:40.006Z,4.28
2018-08-16T12:48:10.548Z,4.28
2018-08-16T12:50:40.432Z,4.58
2018-08-16T12:53:10.576Z,4.42
2018-08-16T12:55:40.476Z,4.22
2018-08-16T12:58:10.542Z,4.37
2018-08-16T13:00:40.487Z,3.90
2018-08-16T13:03:10.563Z,4.50
2018-08-16T13:05:40.574Z,4.37
2018-08-16T13:08:10.558Z,4.20
2018-08-16T13:10:40.455Z,4.55
2018-08-16T13:13:10.349Z,4.45
2018-08-16T13:15:40.550Z,4.10
2018-08-16T13:18:10.487Z,4.08
2018-08-16T13:20:40.495Z,4.92
2018-08-16T13:23:10.358Z,4.33
2018-08-16T13:25:40.375Z,4.92
2018-08-16T13:28:10.249Z,4.42
2018-08-16T13:30:40.170Z,4.60
2018-08-16T13:33:10.180Z,4.58
2018-08-16T13:35:40.104Z,5.10
2018-08-16T13:38:10.101Z,4.62
2018-08-16T13:40:40.132Z,4.15
2018-08-16T13:43:10.164Z,5.15
2018-08-16T13:45:40.215Z,5.25
2018-08-16T13:48:10.180Z,4.28
2018-08-16T13:50:40.037Z,5.30
2018-08-16T13:53:09.995Z,5.47
2018-08-16T13:55:40.026Z,4.53
2018-08-16T13:58:10.062Z,5.60
2018-08-16T14:00:39.994Z,5.05
2018-08-16T14:03:10.493Z,5.95
2018-08-16T14:05:40.777Z,4.33
2018-08-16T14:08:11.027Z,5.10
2018-08-16T14:10:41.910Z,4.40
2018-08-16T14:13:12.413Z,4.80
2018-08-16T14:15:43.964Z,4.95
2018-08-16T14:18:14.073Z,4.70
2018-08-16T14:20:45.102Z,4.60
2018-08-16T14:23:16.007Z,4.47
2018-08-16T14:25:46.940Z,4.97
2018-08-16T14:28:17.783Z,8.50
2018-08-16T14:30:48.662Z,5.53
2018-08-16T14:33:19.458Z,5.17
2018-08-16T14:35:50.347Z,4.95
2018-08-16T14:38:21.459Z,5.35
2018-08-16T14:40:52.719Z,4.97
2018-08-16T14:43:23.590Z,6.00
2018-08-16T14:45:54.408Z,5.22
2018-08-16T14:48:25.452Z,9.10
2018-08-16T14:50:56.356Z,6.55
2018-08-16T14:53:27.180Z,6.15
2018-08-16T14:55:57.993Z,5.53
2018-08-16T14:58:28.991Z,5.65
2018-08-16T15:00:59.727Z,5.28
2018-08-16T15:03:30.820Z,5.33
2018-08-16T15:06:01.729Z,5.90
2018-08-16T15:08:32.451Z,5.60
2018-08-16T15:11:03.615Z,5.20
2018-08-16T15:13:33.824Z,5.20
2018-08-16T15:16:04.738Z,5.67
2018-08-16T15:18:35.529Z,5.70
2018-08-16T15:21:05.783Z,5.78
2018-08-16T15:23:36.928Z,5.42
2018-08-16T15:26:08.019Z,5.03
2018-08-16T15:28:37.939Z,5.40
2018-08-16T15:31:08.802Z,5.50
2018-08-16T15:33:39.742Z,5.30
2018-08-16T15:36:10.787Z,6.05
2018-08-16T15:38:41.807Z,5.22
2018-08-16T15:41:12.603Z,5.65
2018-08-16T15:43:43.517Z,5.00
2018-08-16T15:46:14.379Z,5.75
2018-08-16T15:48:45.289Z,5.35
2018-08-16T15:51:16.054Z,5.53
2018-08-16T15:53:46.937Z,5.92
2018-08-16T15:56:17.738Z,5.95
2018-08-16T15:58:47.559Z,5.33
2018-08-16T16:01:17.840Z,5.78
2018-08-16T16:03:48.397Z,5.37
2018-08-16T16:06:18.853Z,5.70
2018-08-16T16:08:49.460Z,6.62
2018-08-16T16:11:19.773Z,7.85
2018-08-16T16:13:50.145Z,5.15
2018-08-16T16:16:20.945Z,5.00
2018-08-16T16:18:51.748Z,4.83
2018-08-16T16:21:22.741Z,6.17
2018-08-16T16:23:53.413Z,5.20
2018-08-16T16:26:24.294Z,6.03
2018-08-16T16:28:55.297Z,5.85
2018-08-16T16:31:26.178Z,5.03
2018-08-16T16:33:57.404Z,5.83
2018-08-16T16:36:28.357Z,5.10
2018-08-16T16:38:59.756Z,5.42
2018-08-16T16:41:31.011Z,5.55
2018-08-16T16:44:02.119Z,5.10
2018-08-16T16:46:33.631Z,5.47
2018-08-16T16:49:05.471Z,5.20
2018-08-16T16:51:36.881Z,5.78
2018-08-16T16:54:07.840Z,5.25
2018-08-16T16:56:39.052Z,5.17
2018-08-16T16:59:10.967Z,4.85
2018-08-16T17:01:41.268Z,5.37
2018-08-16T17:04:11.239Z,5.35
2018-08-16T17:06:41.931Z,5.45
2018-08-16T17:09:13.462Z,5.08
2018-08-16T17:11:43.747Z,5.03
2018-08-16T17:14:13.839Z,5.42
2018-08-16T17:16:43.661Z,5.42
2018-08-16T17:19:13.721Z,5.33
2018-08-16T17:21:44.319Z,5.63
2018-08-16T17:24:14.222Z,6.10
2018-08-16T17:26:45.206Z,6.00
2018-08-16T17:29:15.044Z,5.57
2018-08-16T17:31:44.798Z,5.60
2018-08-16T17:34:14.593Z,5.17
2018-08-16T17:36:44.444Z,6.00
2018-08-16T17:39:14.232Z,5.60
2018-08-16T17:41:44.117Z,5.80
2018-08-16T17:44:14.294Z,5.53
2018-08-16T17:46:44.211Z,6.13
2018-08-16T17:49:14.080Z,5.30
2018-08-16T17:51:43.922Z,6.07
2018-08-16T17:54:13.707Z,6.00
2018-08-16T17:56:43.659Z,6.20
2018-08-16T17:59:13.576Z,6.60
2018-08-16T18:01:43.576Z,6.73
2018-08-16T18:04:13.342Z,6.43
2018-08-16T18:06:43.120Z,6.87
2018-08-16T18:09:12.978Z,6.87
2018-08-16T18:11:43.151Z,6.80
2018-08-16T18:14:13.071Z,6.83
2018-08-16T18:16:43.056Z,7.30
2018-08-16T18:19:12.846Z,7.15
2018-08-16T18:21:42.641Z,7.13
2018-08-16T18:24:12.557Z,6.77
2018-08-16T18:26:42.424Z,7.10
2018-08-16T18:29:12.400Z,7.20
2018-08-16T18:31:42.140Z,7.57
2018-08-16T18:34:11.990Z,6.87
2018-08-16T18:36:41.979Z,7.23
2018-08-16T18:39:11.909Z,7.40
2018-08-16T18:41:42.256Z,7.07
2018-08-16T18:44:12.570Z,7.40
2018-08-16T18:46:42.341Z,10.87
2018-08-16T18:49:12.185Z,7.40
2018-08-16T18:51:42.020Z,6.83
2018-08-16T18:54:12.111Z,7.37
2018-08-16T18:56:42.236Z,7.30
2018-08-16T18:59:12.664Z,7.10
2018-08-16T19:01:42.563Z,6.93
2018-08-16T19:04:12.624Z,6.70
2018-08-16T19:06:42.861Z,6.53
2018-08-16T19:09:13.102Z,7.13
2018-08-16T19:11:43.070Z,6.70
2018-08-16T19:14:12.934Z,7.27
2018-08-16T19:16:42.946Z,7.27
2018-08-16T19:19:13.154Z,7.60
2018-08-16T19:21:43.154Z,7.80
2018-08-16T19:24:13.428Z,6.97
2018-08-16T19:26:43.849Z,7.07
2018-08-16T19:29:13.718Z,7.60
2018-08-16T19:31:43.656Z,8.20
2018-08-16T19:34:14.868Z,7.60
2018-08-16T19:36:46.155Z,8.53
2018-08-16T19:39:17.295Z,8.17
2018-08-16T19:41:49.056Z,8.23
2018-08-16T19:44:20.005Z,8.67
2018-08-16T19:46:51.284Z,8.73
2018-08-16T19:49:22.714Z,9.67
2018-08-16T19:51:54.562Z,9.10
2018-08-16T19:54:26.629Z,9.00
2018-08-16T19:56:58.426Z,9.70
2018-08-16T19:59:29.807Z,8.87
2018-08-16T20:02:01.272Z,8.47
2018-08-16T20:04:32.732Z,8.80
2018-08-16T20:07:03.582Z,7.10
2018-08-16T20:09:34.557Z,6.40
2018-08-16T20:12:04.899Z,6.47
2018-08-16T20:14:35.673Z,7.00
2018-08-16T20:17:06.715Z,6.13
2018-08-16T20:19:38.078Z,6.63
2018-08-16T20:22:14.201Z,6.23
2018-08-16T20:24:45.509Z,7.50
2018-08-16T20:27:16.403Z,7.53
2018-08-16T20:29:48.100Z,7.30
2018-08-16T20:32:18.948Z,8.23
2018-08-16T20:34:49.601Z,8.60
2018-08-16T20:37:20.609Z,8.13
2018-08-16T20:39:51.684Z,8.50
2018-08-16T20:42:23.187Z,10.20
2018-08-16T20:44:54.819Z,10.93
2018-08-16T20:47:25.505Z,10.40
2018-08-16T20:49:56.390Z,11.03
2018-08-16T20:52:27.210Z,10.00
2018-08-16T20:54:57.995Z,9.77
2018-08-16T20:57:27.981Z,10.13
2018-08-16T20:59:58.804Z,9.87
2018-08-16T21:02:29.512Z,10.43
2018-08-16T21:05:00.394Z,10.17
2018-08-16T21:07:31.125Z,11.03
2018-08-16T21:10:02.493Z,11.57
2018-08-16T21:12:33.328Z,10.17
2018-08-16T21:15:04.681Z,11.17
2018-08-16T21:17:35.509Z,11.73
2018-08-16T21:20:07.109Z,9.53
2018-08-16T21:39:22.129Z,13.53
2018-08-16T21:41:53.017Z,15.40
2018-08-16T21:44:23.981Z,15.30
2018-08-16T21:46:54.672Z,15.20
2018-08-16T21:49:25.833Z,15.30
2018-08-16T21:51:56.687Z,13.90
2018-08-16T21:54:27.699Z,14.17
2018-08-16T21:56:58.898Z,14.27
2018-08-16T21:59:29.832Z,13.27
2018-08-16T22:02:00.676Z,14.37
2018-08-16T22:04:32.012Z,14.70
2018-08-16T22:07:06.769Z,13.93
2018-08-16T22:09:37.433Z,12.70
2018-08-16T22:12:09.031Z,12.13
2018-08-16T22:14:40.433Z,13.30
2018-08-16T22:17:11.444Z,14.80
2018-08-16T22:19:42.216Z,14.30
2018-08-16T22:22:13.930Z,13.67
2018-08-16T22:24:44.759Z,13.60
2018-08-16T22:27:15.701Z,13.33
2018-08-16T22:29:46.566Z,13.80
2018-08-16T22:32:17.693Z,14.37
2018-08-16T22:34:49.018Z,14.03
2018-08-16T22:37:19.802Z,13.37
2018-08-16T22:39:50.573Z,13.87
2018-08-16T22:42:21.478Z,15.60
2018-08-16T22:44:52.515Z,15.03
2018-08-16T22:47:23.101Z,15.13
2018-08-16T22:49:53.726Z,16.13
2018-08-16T22:52:25.489Z,16.20
2018-08-16T22:54:56.355Z,16.03
2018-08-16T22:57:28.088Z,15.13
2018-08-16T22:59:58.936Z,13.30
2018-08-16T23:02:29.885Z,12.90
2018-08-16T23:05:00.799Z,12.70
2018-08-16T23:07:32.340Z,13.87
2018-08-16T23:10:03.445Z,13.57
2018-08-16T23:12:34.605Z,14.70
2018-08-16T23:15:06.098Z,13.03
2018-08-16T23:17:36.980Z,13.90
2018-08-16T23:20:08.465Z,12.43
2018-08-16T23:22:40.052Z,12.67
2018-08-16T23:25:11.800Z,12.60
2018-08-16T23:27:42.509Z,14.13
2018-08-16T23:30:15.153Z,14.70
2018-08-16T23:32:46.093Z,15.40
2018-08-16T23:35:17.871Z,15.73
2018-08-16T23:37:48.691Z,15.00
2018-08-16T23:40:19.591Z,13.67
2018-08-16T23:42:50.572Z,14.03
2018-08-16T23:45:22.007Z,12.40
2018-08-16T23:48:03.950Z,13.20
2018-08-16T23:50:34.688Z,13.40
2018-08-16T23:53:05.853Z,14.10
2018-08-16T23:55:36.820Z,12.33
2018-08-16T23:58:07.746Z,12.90
